This is the latest recevied weather packets stored in our database for station/object OM8AKX-12. If no packets are shown the sender has not sent any weather packets the latest 1 day(s).
| Time | Temp. | Humidity | Pressure | Rain* | Wind** | Luminosity | Snow |
|---|---|---|---|---|---|---|---|
| 1778046911 | 16.67° C | 56% | 1006.5 hPa | - | - | - | - |
| 1778046011 | 13.89° C | 63% | 1006.6 hPa | - | - | - | - |
| 1778045111 | 14.44° C | 61% | 1006.4 hPa | - | - | - | - |
| 1778044211 | 13.89° C | 68% | 1006.4 hPa | - | - | - | - |
| 1778043311 | 12.78° C | 74% | 1006.2 hPa | - | - | - | - |
| 1778039710 | 11.67° C | 77% | 1005.7 hPa | - | - | - | - |
| 1778038810 | 10.56° C | 78% | 1006 hPa | - | - | - | - |
| 1778037910 | 9.44° C | 82% | 1006 hPa | - | - | - | - |
| 1778037010 | 8.33° C | 82% | 1006 hPa | - | - | - | - |
| 1778036110 | 9.44° C | 78% | 1006 hPa | - | - | - | - |
| 1778035210 | 9.44° C | 77% | 1006.1 hPa | - | - | - | - |
| 1778034310 | 8.89° C | 77% | 1006.1 hPa | - | - | - | - |
| 1778033410 | 9.44° C | 75% | 1006.2 hPa | - | - | - | - |
| 1778032510 | 9.44° C | 73% | 1006.2 hPa | - | - | - | - |
| 1778031610 | 9.44° C | 71% | 1006.1 hPa | - | - | - | - |
| 1778030710 | 8.89° C | 73% | 1006.3 hPa | - | - | - | - |
| 1778029810 | 8.89° C | 69% | 1006.2 hPa | - | - | - | - |
| 1778028910 | 10° C | 67% | 1006 hPa | - | - | - | - |
| 1778028010 | 10.56° C | 62% | 1005.9 hPa | - | - | - | - |
| 1778027110 | 11.67° C | 55% | 1005.9 hPa | - | - | - | - |
* Rain since midnight (hover to see other rain measurements)
** Current wind speed in m/s (hover to see current wind gust speed)